Time;durP1;ratioP1;P1;durP2;ratioP2;P2;SDS_P1;SDS_P2;PMS_P1;PMS_P2;Temp;Humidity;BMP_temperature;BMP_pressure;BME280_temperature;BME280_humidity;BME280_pressure;Samples;Min_cycle;Max_cycle;Signal;HPM_P1;HPM_P2
2021/08/03 00:00:32;;;;;;;0.10;0.10;;;;;;;19.77;81.21;98581.63;4815600;29;20133;-81
2021/08/03 00:02:58;;;;;;;0.10;0.10;;;;;;;19.73;81.54;98577.69;4803033;29;20042;-81
2021/08/03 00:05:27;;;;;;;0.10;0.10;;;;;;;19.67;81.79;98574.00;4818750;29;20042;-81
2021/08/03 00:08:10;;;;;;;0.10;0.10;;;;;;;19.67;81.46;98589.59;4813776;29;20045;-82
2021/08/03 00:10:36;;;;;;;0.10;0.10;;;;;;;19.65;81.56;98589.84;4805554;29;20152;-83
2021/08/03 00:13:03;;;;;;;0.10;0.10;;;;;;;19.61;81.72;98582.28;4807947;29;20125;-84
2021/08/03 00:15:29;;;;;;;0.10;0.10;;;;;;;19.58;81.45;98588.25;4803757;29;20175;-82
2021/08/03 00:17:56;;;;;;;0.10;0.10;;;;;;;19.52;81.49;98590.88;4818728;29;20483;-81
2021/08/03 00:20:23;;;;;;;0.10;0.10;;;;;;;19.39;82.11;98588.31;4793447;29;20050;-80
2021/08/03 00:22:50;;;;;;;0.10;0.10;;;;;;;19.38;82.27;98594.88;4812480;29;20057;-83
2021/08/03 00:25:16;;;;;;;0.10;0.10;;;;;;;19.32;82.41;98584.84;4807205;29;20046;-83
2021/08/03 00:27:42;;;;;;;0.00;0.00;;;;;;;19.35;82.31;98600.81;4804640;29;20053;-81
2021/08/03 00:30:09;;;;;;;0.10;0.10;;;;;;;19.32;82.33;98587.59;4829094;29;20050;-83
2021/08/03 00:32:35;;;;;;;0.10;0.10;;;;;;;19.27;82.82;98603.91;4806009;29;20102;-84
2021/08/03 00:35:03;;;;;;;0.10;0.10;;;;;;;19.20;83.04;98614.13;4799369;29;20185;-86
2021/08/03 00:37:29;;;;;;;0.10;0.10;;;;;;;19.20;83.26;98614.13;4822134;29;20058;-82
2021/08/03 00:39:57;;;;;;;0.10;0.10;;;;;;;19.15;83.41;98608.50;4819013;29;20146;-81
2021/08/03 00:42:33;;;;;;;0.10;0.10;;;;;;;19.07;83.83;98612.38;4819008;29;20037;-82
2021/08/03 00:44:59;;;;;;;0.10;0.10;;;;;;;18.98;83.89;98611.06;4822052;29;20053;-81
2021/08/03 00:47:32;;;;;;;0.10;0.10;;;;;;;18.97;83.94;98620.31;4836777;29;20433;-83
2021/08/03 00:50:07;;;;;;;0.10;0.10;;;;;;;18.96;83.79;98619.50;4816294;29;20053;-81
2021/08/03 00:52:35;;;;;;;0.10;0.10;;;;;;;18.97;84.36;98620.31;4803013;29;20488;-82
2021/08/03 00:55:03;;;;;;;0.10;0.10;;;;;;;18.87;84.20;98612.66;4826709;29;20133;-84
2021/08/03 00:57:29;;;;;;;0.10;0.10;;;;;;;18.85;84.56;98633.97;4820301;29;20041;-80
2021/08/03 00:59:57;;;;;;;0.10;0.10;;;;;;;18.82;84.48;98626.19;4782198;29;20038;-81
2021/08/03 01:02:29;;;;;;;0.10;0.10;;;;;;;18.70;85.04;98625.28;4797272;29;20418;-80
2021/08/03 01:04:58;;;;;;;0.10;0.10;;;;;;;18.67;84.98;98631.19;4806874;29;20572;-80
2021/08/03 01:07:59;;;;;;;0.10;0.10;;;;;;;18.65;85.31;98633.31;4787436;29;20077;-83
2021/08/03 01:10:40;;;;;;;0.10;0.10;;;;;;;18.64;85.18;98637.13;4816267;29;20064;-81
2021/08/03 01:13:24;;;;;;;0.10;0.10;;;;;;;18.62;84.97;98639.28;4821887;29;20397;-82
2021/08/03 01:15:56;;;;;;;0.10;0.10;;;;;;;18.59;85.40;98645.19;4817777;29;20045;-81
2021/08/03 01:18:25;;;;;;;0.10;0.10;;;;;;;18.52;85.60;98646.09;4810913;29;20220;-85
2021/08/03 01:20:57;;;;;;;0.10;0.10;;;;;;;18.49;85.51;98645.72;4809029;29;20042;-82
2021/08/03 01:23:50;;;;;;;0.10;0.10;;;;;;;18.42;85.39;98654.00;4831242;29;20061;-84
2021/08/03 01:26:16;;;;;;;0.10;0.10;;;;;;;18.42;85.54;98651.25;4816990;29;20046;-79
2021/08/03 01:28:45;;;;;;;0.10;0.10;;;;;;;18.40;85.38;98656.13;4788854;29;20433;-83
2021/08/03 01:31:20;;;;;;;0.10;0.10;;;;;;;18.38;85.40;98650.03;4793830;29;20578;-81
2021/08/03 01:33:49;;;;;;;0.10;0.10;;;;;;;18.34;85.67;98654.28;4817659;29;20133;-82
2021/08/03 01:36:17;;;;;;;0.10;0.10;;;;;;;18.29;85.86;98654.16;4827301;29;20381;-82
2021/08/03 01:38:46;;;;;;;0.10;0.10;;;;;;;18.28;85.62;98666.13;4810632;29;20137;-82
2021/08/03 01:41:18;;;;;;;0.10;0.10;;;;;;;18.24;85.61;98662.19;4819889;29;20132;-82
2021/08/03 01:43:46;;;;;;;0.10;0.10;;;;;;;18.28;85.46;98660.66;4808312;29;20512;-83
2021/08/03 01:46:15;;;;;;;0.10;0.10;;;;;;;18.26;85.53;98673.75;4811413;29;20057;-80
2021/08/03 01:48:42;;;;;;;0.10;0.10;;;;;;;18.24;85.37;98670.38;4802757;29;20064;-81
2021/08/03 01:51:10;;;;;;;0.10;0.10;;;;;;;18.25;85.27;98683.03;4821845;29;20050;-81
2021/08/03 01:53:38;;;;;;;0.10;0.10;;;;;;;18.17;85.37;98683.28;4819436;29;20041;-81
2021/08/03 01:56:06;;;;;;;0.10;0.10;;;;;;;18.15;85.51;98671.75;4793137;29;20470;-81
2021/08/03 01:58:32;;;;;;;0.10;0.10;;;;;;;18.10;85.94;98674.28;4788743;29;20156;-83
2021/08/03 02:01:07;;;;;;;0.10;0.10;;;;;;;18.14;85.80;98678.28;4797077;29;20103;-81
2021/08/03 02:03:35;;;;;;;0.10;0.10;;;;;;;18.07;85.88;98676.44;4805670;29;20046;-81
2021/08/03 02:06:15;;;;;;;0.10;0.10;;;;;;;18.07;85.97;98681.91;4824519;29;20353;-83
2021/08/03 02:08:44;;;;;;;0.10;0.10;;;;;;;18.07;86.00;98683.81;4817374;29;20076;-82
2021/08/03 02:11:14;;;;;;;0.10;0.10;;;;;;;18.05;85.85;98689.47;4822145;29;20046;-81
2021/08/03 02:13:45;;;;;;;0.10;0.10;;;;;;;18.03;86.18;98691.63;4833987;29;20114;-79
2021/08/03 02:16:19;;;;;;;0.10;0.10;;;;;;;17.98;86.18;98699.63;4813627;29;20117;-82
2021/08/03 02:18:52;;;;;;;0.10;0.10;;;;;;;17.97;86.11;98702.59;4802280;29;20043;-82
2021/08/03 02:21:23;;;;;;;0.10;0.10;;;;;;;17.95;85.97;98700.09;4817645;29;20524;-82
2021/08/03 02:23:51;;;;;;;0.10;0.10;;;;;;;17.98;86.04;98702.38;4811881;29;20050;-80
2021/08/03 02:26:17;;;;;;;0.10;0.10;;;;;;;17.91;86.12;98715.25;4805245;29;20128;-81
2021/08/03 02:28:43;;;;;;;0.10;0.10;;;;;;;17.92;86.17;98716.97;4785994;29;20413;-81
2021/08/03 02:31:23;;;;;;;0.10;0.10;;;;;;;17.96;85.68;98696.31;4788962;29;20067;-81
2021/08/03 02:33:53;;;;;;;0.10;0.10;;;;;;;17.97;85.36;98705.34;4811521;29;20042;-80
2021/08/03 02:36:21;;;;;;;0.10;0.10;;;;;;;17.98;85.56;98704.28;4804449;29;20043;-86
2021/08/03 02:38:56;;;;;;;0.10;0.10;;;;;;;17.96;85.53;98709.97;4789323;29;20050;-84
2021/08/03 02:41:26;;;;;;;0.10;0.10;;;;;;;17.97;85.43;98719.84;4803243;29;20056;-84
2021/08/03 02:43:52;;;;;;;0.10;0.10;;;;;;;17.98;85.61;98726.16;4803600;29;20152;-80
2021/08/03 02:46:23;;;;;;;0.10;0.10;;;;;;;18.00;85.02;98722.16;4821199;29;20544;-82
2021/08/03 02:49:01;;;;;;;0.10;0.10;;;;;;;17.96;85.22;98729.13;4829678;29;20050;-81
2021/08/03 02:51:39;;;;;;;0.10;0.10;;;;;;;17.95;85.65;98732.94;4810195;29;20209;-83
2021/08/03 02:54:15;;;;;;;0.10;0.10;;;;;;;17.94;85.28;98725.75;4835495;29;20066;-81
2021/08/03 02:56:41;;;;;;;0.20;0.20;;;;;;;18.04;84.68;98736.22;4807809;29;20054;-83
2021/08/03 02:59:11;;;;;;;0.20;0.20;;;;;;;18.16;84.40;98728.13;4825047;29;20054;-82
2021/08/03 03:01:40;;;;;;;0.20;0.20;;;;;;;18.36;83.32;98736.19;4819765;29;20057;-84
2021/08/03 03:04:29;;;;;;;0.10;0.10;;;;;;;18.50;82.53;98740.44;4796657;29;20195;-84
2021/08/03 03:06:58;;;;;;;0.10;0.10;;;;;;;18.55;82.02;98738.72;4836249;29;20095;-81
2021/08/03 03:09:29;;;;;;;0.10;0.10;;;;;;;18.52;82.53;98749.28;4799563;29;20049;-80
2021/08/03 03:11:56;;;;;;;0.10;0.10;;;;;;;18.38;82.28;98748.56;4826551;29;20058;-84
2021/08/03 03:14:23;;;;;;;0.10;0.10;;;;;;;18.28;83.39;98756.41;4830662;29;20081;-84
2021/08/03 03:16:50;;;;;;;0.10;0.10;;;;;;;18.25;82.99;98759.63;4821683;29;20046;-82
2021/08/03 03:19:17;;;;;;;0.20;0.20;;;;;;;18.41;82.52;98758.22;4797466;29;20082;-84
2021/08/03 03:21:46;;;;;;;0.20;0.20;;;;;;;18.63;81.36;98762.22;4830555;29;20046;-84
2021/08/03 03:24:15;;;;;;;0.20;0.20;;;;;;;18.78;80.87;98770.13;4815046;29;20229;-83
2021/08/03 03:26:44;;;;;;;0.20;0.20;;;;;;;18.89;79.92;98772.09;4828455;29;20085;-86
2021/08/03 03:29:13;;;;;;;0.20;0.20;;;;;;;19.05;79.10;98781.66;4795147;29;20056;-83
2021/08/03 03:31:41;;;;;;;0.20;0.20;;;;;;;19.29;78.17;98788.09;4831473;29;20049;-83
2021/08/03 03:34:10;;;;;;;0.20;0.20;;;;;;;19.30;77.42;98778.81;4821841;29;20049;-83
2021/08/03 03:36:37;;;;;;;0.20;0.20;;;;;;;19.55;76.79;98786.09;4820741;29;20056;-82
2021/08/03 03:39:08;;;;;;;0.20;0.20;;;;;;;19.91;75.52;98805.25;4838086;29;20043;-83
2021/08/03 03:41:37;;;;;;;0.20;0.20;;;;;;;19.81;75.09;98813.22;4826242;29;20066;-83
2021/08/03 03:44:06;;;;;;;0.20;0.20;;;;;;;19.85;74.67;98824.56;4813534;29;20415;-82
2021/08/03 03:46:42;;;;;;;0.20;0.20;;;;;;;19.79;75.05;98826.34;4831535;29;20054;-82
2021/08/03 03:49:11;;;;;;;;;;;;;;;19.90;74.66;98821.97;4827783;29;20422;-84
2021/08/03 03:51:43;;;;;;;0.10;0.10;;;;;;;19.73;75.28;98827.25;4788679;29;19935;-82
2021/08/03 03:54:18;;;;;;;0.20;0.20;;;;;;;19.81;75.21;98829.66;4792876;29;20072;-84
2021/08/03 03:56:57;;;;;;;0.20;0.20;;;;;;;20.04;73.89;98828.09;4819728;29;20119;-82
2021/08/03 03:59:24;;;;;;;0.30;0.30;;;;;;;20.34;73.25;98828.91;4802605;29;20056;-83
2021/08/03 04:01:56;;;;;;;0.30;0.30;;;;;;;20.33;73.02;98826.41;4809855;29;20053;-83
2021/08/03 04:04:22;;;;;;;0.20;0.20;;;;;;;20.77;70.74;98830.59;4833309;29;20062;-84
2021/08/03 04:06:49;;;;;;;0.30;0.30;;;;;;;21.35;69.30;98835.25;4790292;29;20045;-82
2021/08/03 04:09:20;;;;;;;0.20;0.20;;;;;;;21.69;67.57;98840.94;4805988;29;20137;-84
2021/08/03 04:11:48;;;;;;;0.30;0.30;;;;;;;22.12;65.86;98828.53;4782905;29;20457;-82
2021/08/03 04:14:23;;;;;;;0.40;0.40;;;;;;;21.55;67.94;98831.28;4815532;29;20049;-83
2021/08/03 04:16:54;;;;;;;0.32;0.32;;;;;;;21.84;65.99;98844.00;4805324;29;20055;-83
2021/08/03 04:19:21;;;;;;;0.20;0.20;;;;;;;22.44;64.74;98852.84;4814655;29;20114;-82
2021/08/03 04:21:48;;;;;;;0.10;0.10;;;;;;;22.01;65.18;98866.09;4790203;29;20488;-87
2021/08/03 04:24:18;;;;;;;0.20;0.20;;;;;;;21.42;66.13;98863.44;4803600;29;20072;-84
2021/08/03 04:26:45;;;;;;;0.30;0.30;;;;;;;21.31;67.15;98861.50;4795201;29;20095;-85
2021/08/03 04:29:12;;;;;;;0.30;0.30;;;;;;;21.43;66.59;98867.88;4811907;29;20394;-86
2021/08/03 04:31:38;;;;;;;0.40;0.40;;;;;;;21.59;66.72;98860.78;4796026;29;20050;-83
2021/08/03 04:34:04;;;;;;;0.28;0.28;;;;;;;21.92;65.15;98857.34;4819101;29;20042;-84
2021/08/03 04:36:30;;;;;;;0.30;0.30;;;;;;;22.11;64.09;98879.19;4827183;29;20095;-83
2021/08/03 04:38:58;;;;;;;0.20;0.20;;;;;;;21.51;66.71;98865.84;4833186;29;21387;-86
2021/08/03 04:41:28;;;;;;;0.10;0.10;;;;;;;21.33;67.67;98881.41;4815563;29;20054;-83
2021/08/03 04:43:55;;;;;;;0.10;0.10;;;;;;;21.30;67.33;98876.34;4824939;29;20557;-84
2021/08/03 04:46:21;;;;;;;0.20;0.20;;;;;;;21.48;66.49;98888.31;4816802;29;20049;-85
2021/08/03 04:48:48;;;;;;;0.20;0.20;;;;;;;21.64;65.87;98876.56;4813360;29;20038;-83
2021/08/03 04:51:15;;;;;;;0.20;0.20;;;;;;;21.26;66.88;98880.66;4824791;29;20121;-83
2021/08/03 04:53:42;;;;;;;0.30;0.30;;;;;;;21.75;65.80;98878.47;4800889;29;20097;-86
2021/08/03 04:56:09;;;;;;;0.30;0.30;;;;;;;22.17;64.32;98881.00;4804599;29;20053;-85
2021/08/03 04:58:39;;;;;;;0.43;0.43;;;;;;;22.08;63.41;98876.94;4808974;29;20021;-84
2021/08/03 05:01:05;;;;;;;0.20;0.20;;;;;;;21.52;64.60;98873.00;4821182;29;20121;-84
2021/08/03 05:03:32;;;;;;;0.40;0.40;;;;;;;22.21;62.96;98876.69;4788583;29;20050;-82
2021/08/03 05:05:58;;;;;;;0.50;0.50;;;;;;;22.06;62.90;98884.59;4790396;29;20540;-83
2021/08/03 05:08:24;;;;;;;0.40;0.40;;;;;;;22.57;61.95;98882.84;4781749;29;20045;-83
2021/08/03 05:10:52;;;;;;;0.20;0.20;;;;;;;22.03;62.39;98879.59;4819511;29;20477;-81
2021/08/03 05:13:18;;;;;;;0.20;0.20;;;;;;;22.01;63.13;98887.25;4808780;29;20365;-82
2021/08/03 05:15:48;;;;;;;0.20;0.20;;;;;;;22.13;62.50;98890.81;4842901;29;20037;-86
2021/08/03 05:18:15;;;;;;;0.40;0.40;;;;;;;22.57;60.91;98880.09;4820147;29;20043;-82
2021/08/03 05:20:45;;;;;;;0.20;0.20;;;;;;;23.04;59.51;98896.38;4849591;29;20049;-85
2021/08/03 05:23:15;;;;;;;0.20;0.20;;;;;;;22.57;60.27;98902.13;4982676;24;20021;-85
2021/08/03 05:25:44;;;;;;;0.20;0.20;;;;;;;22.46;60.99;98905.78;4841155;29;20049;-87
2021/08/03 05:28:13;;;;;;;0.20;0.20;;;;;;;22.38;61.08;98899.59;4814817;29;20046;-85
2021/08/03 05:30:40;;;;;;;0.10;0.10;;;;;;;22.07;61.81;98913.81;4842780;29;20074;-84
2021/08/03 05:33:07;;;;;;;0.20;0.20;;;;;;;22.08;62.52;98918.22;4821646;29;20026;-84
2021/08/03 05:35:33;;;;;;;0.20;0.20;;;;;;;22.30;61.51;98912.91;4845242;29;20056;-86
2021/08/03 05:37:59;;;;;;;0.20;0.20;;;;;;;22.35;61.38;98916.59;4820909;29;20053;-84
2021/08/03 05:40:26;;;;;;;0.20;0.20;;;;;;;22.13;61.92;98913.66;4836938;29;20043;-84
2021/08/03 05:42:53;;;;;;;0.20;0.20;;;;;;;21.55;63.58;98916.53;4836493;29;20050;-86
2021/08/03 05:45:23;;;;;;;0.30;0.30;;;;;;;21.93;62.68;98913.22;4803005;29;20046;-86
2021/08/03 05:47:53;;;;;;;0.38;0.38;;;;;;;22.11;62.33;98914.97;4824594;24;20077;-86
2021/08/03 05:50:27;;;;;;;0.60;0.60;;;;;;;22.17;61.72;98907.72;4833432;24;20114;31
2021/08/03 05:52:55;;;;;;;0.60;0.60;;;;;;;22.48;60.52;98903.59;5342676;24;20039;-77
2021/08/03 05:55:24;;;;;;;0.50;0.50;;;;;;;22.51;60.21;98903.13;4854175;24;20153;-86
2021/08/03 05:57:53;;;;;;;0.45;0.45;;;;;;;22.82;59.45;98899.84;4794579;29;20026;-89
2021/08/03 06:00:25;;;;;;;0.20;0.20;;;;;;;22.52;60.56;98902.03;5539555;24;20108;-85
2021/08/03 06:02:52;;;;;;;0.30;0.30;;;;;;;22.45;61.56;98915.13;5383313;24;20944;-88
2021/08/03 06:05:22;;;;;;;0.40;0.40;;;;;;;23.35;58.84;98915.03;5508629;24;20023;-88
2021/08/03 06:07:52;;;;;;;0.40;0.40;;;;;;;23.05;58.85;98917.31;4779360;29;20390;-86
2021/08/03 06:10:20;;;;;;;0.20;0.20;;;;;;;22.69;59.49;98927.69;4805421;29;20513;-85
2021/08/03 06:12:50;;;;;;;0.20;0.20;;;;;;;22.92;59.20;98947.97;4796722;29;20050;-85
2021/08/03 06:15:19;;;;;;;0.30;0.30;;;;;;;22.68;60.04;98950.84;4975820;24;20030;-85
2021/08/03 06:20:57;;;;;;;0.20;0.20;;;;;;;23.69;56.96;98950.06;5094189;24;20054;-87
2021/08/03 06:23:27;;;;;;;0.20;0.20;;;;;;;23.02;58.36;98953.66;4819906;29;20081;-88
2021/08/03 06:26:00;;;;;;;0.20;0.20;;;;;;;22.66;59.03;98960.41;5026345;24;20097;-88
2021/08/03 06:28:29;;;;;;;0.30;0.30;;;;;;;22.17;60.06;98949.84;4862675;24;20035;-86
2021/08/03 06:33:52;;;;;;;0.20;0.20;;;;;;;22.48;59.37;98964.22;4833421;29;20102;-85
2021/08/03 06:40:01;;;;;;;0.20;0.20;;;;;;;23.09;58.28;98959.84;5482040;24;20038;31
2021/08/03 06:42:50;;;;;;;0.30;0.30;;;;;;;23.45;55.58;98971.47;4783039;29;20042;-85
2021/08/03 06:48:37;;;;;;;0.30;0.30;;;;;;;23.85;51.90;98984.25;4772678;30;20032;-84
2021/08/03 06:51:13;;;;;;;0.20;0.20;;;;;;;23.10;54.36;98986.34;5113525;24;20440;-88
2021/08/03 06:53:57;;;;;;;0.10;0.10;;;;;;;22.38;57.22;98987.72;5134333;24;20054;-88
2021/08/03 06:56:28;;;;;;;0.10;0.10;;;;;;;22.06;58.74;98989.22;5206741;24;20054;-86
2021/08/03 06:59:10;;;;;;;0.10;0.10;;;;;;;22.12;58.77;98997.34;4985306;24;20074;-85
2021/08/03 07:11:04;;;;;;;0.70;0.70;;;;;;;23.37;55.70;98999.50;5453959;24;20066;-86
2021/08/03 07:13:39;;;;;;;0.20;0.20;;;;;;;22.88;56.86;98995.28;4814074;29;20050;-87
2021/08/03 07:16:34;;;;;;;1.27;1.27;;;;;;;23.96;54.01;98997.13;5127744;24;20115;31
2021/08/03 07:19:02;;;;;;;1.20;1.20;;;;;;;24.53;52.91;99013.34;5160538;24;20056;-86
2021/08/03 07:21:30;;;;;;;1.23;1.23;;;;;;;25.97;48.55;99011.69;4815757;29;20045;-87
2021/08/03 07:24:00;;;;;;;0.98;0.98;;;;;;;26.04;48.34;99011.44;4819926;29;20075;-87
2021/08/03 07:29:44;;;;;;;0.82;0.82;;;;;;;27.04;44.36;99008.53;5012956;24;20044;-86
2021/08/03 07:32:17;;;;;;;1.30;1.30;;;;;;;28.25;43.23;99007.94;4990032;24;20070;-88
2021/08/03 07:34:46;;;;;;;1.33;1.33;;;;;;;27.67;44.54;99015.78;4812125;29;20047;-86
2021/08/03 07:37:17;;;;;;;0.50;0.50;;;;;;;27.78;44.44;99006.38;5195170;24;20058;-89
2021/08/03 07:39:47;;;;;;;0.20;0.20;;;;;;;26.54;45.22;99012.81;5122939;24;20042;-87
2021/08/03 07:45:21;;;;;;;0.40;0.40;;;;;;;25.84;47.65;98994.69;5304661;24;20133;-87
2021/08/03 07:47:52;;;;;;;0.20;0.20;;;;;;;24.87;48.55;99002.13;4792091;29;20054;-86
2021/08/03 07:53:15;;;;;;;0.20;0.20;;;;;;;26.00;46.32;99006.69;5507358;24;20054;-85
2021/08/03 07:56:02;;;;;;;1.75;1.75;;;;;;;26.89;43.50;99027.91;4997371;24;20078;-86
2021/08/03 07:58:29;;;;;;;0.75;0.75;;;;;;;28.03;41.28;99003.53;5352017;24;20333;-88
2021/08/03 08:01:00;;;;;;;0.75;0.75;;;;;;;27.26;42.68;99011.06;5243302;24;20100;-86
2021/08/03 08:03:50;;;;;;;0.30;0.30;;;;;;;27.13;43.20;98995.81;5210162;24;20042;-84
2021/08/03 08:06:19;;;;;;;0.20;0.20;;;;;;;27.09;42.21;99000.19;4952754;24;20070;-87
2021/08/03 08:11:51;;;;;;;0.10;0.10;;;;;;;25.20;45.55;99007.47;5707355;24;20093;-87
2021/08/03 08:14:30;;;;;;;0.10;0.10;;;;;;;23.55;49.49;99018.56;5220029;24;20074;-87
2021/08/03 08:17:00;;;;;;;0.10;0.10;;;;;;;23.42;50.59;99010.59;4791190;29;20054;-87
2021/08/03 08:19:30;;;;;;;0.15;0.15;;;;;;;23.74;50.78;99006.19;5196765;24;20067;-88
2021/08/03 08:21:57;;;;;;;0.20;0.20;;;;;;;23.71;49.63;99003.94;5036526;24;20062;-86
2021/08/03 08:24:27;;;;;;;0.20;0.20;;;;;;;23.54;50.41;99005.81;5032045;24;20030;-87
2021/08/03 08:27:00;;;;;;;1.40;1.40;;;;;;;24.95;47.51;99001.66;4835273;24;20038;-87
2021/08/03 08:29:30;;;;;;;0.50;0.50;;;;;;;25.63;45.71;99013.91;4841239;24;20079;-87
2021/08/03 08:59:58;;;;;;;0.20;0.20;;;;;;;25.59;44.79;99020.22;5611578;24;19912;31
2021/08/03 09:25:54;;;;;;;0.20;0.20;;;;;;;25.12;46.33;99041.16;5743326;24;20089;31
2021/08/03 09:38:19;;;;;;;0.20;0.20;;;;;;;26.89;40.44;99044.56;5613279;24;20050;-87
2021/08/03 09:40:48;;;;;;;1.13;1.13;;;;;;;26.57;41.67;99056.63;4866458;24;20055;-87
2021/08/03 10:02:06;;;;;;;1.10;1.10;;;;;;;29.21;35.85;99069.84;5429040;24;20368;-87
2021/08/03 10:11:26;;;;;;;;;;;;;;;;;;;;;
2021/08/03 10:13:57;;;;;;;1.10;1.10;;;;;;;31.74;30.36;99074.91;5576968;24;20053;-86
2021/08/03 10:27:14;;;;;;;0.20;0.20;;;;;;;27.33;38.54;99077.44;5379581;24;20103;-81
2021/08/03 10:30:08;;;;;;;0.30;0.30;;;;;;;27.97;37.69;99071.34;5316165;24;20044;31
2021/08/03 10:44:45;;;;;;;0.20;0.20;;;;;;;27.10;36.30;99067.66;5440929;24;20433;-84
2021/08/03 12:01:12;;;;;;;0.10;0.10;;;;;;;26.54;40.03;99076.56;5857137;24;20040;31
2021/08/03 13:07:54;;;;;;;0.10;0.10;;;;;;;25.20;41.94;99062.81;4985001;24;20103;-84
2021/08/03 13:10:25;;;;;;;0.10;0.10;;;;;;;25.68;40.69;99069.31;4824186;29;20057;-84
2021/08/03 13:13:14;;;;;;;0.10;0.10;;;;;;;25.65;40.13;99061.53;5136118;24;20089;-83
2021/08/03 13:15:44;;;;;;;0.10;0.10;;;;;;;25.39;40.63;99059.66;4844302;29;20196;-86
2021/08/03 13:18:14;;;;;;;0.10;0.10;;;;;;;24.85;41.95;99048.56;4818972;29;20046;-85
2021/08/03 13:20:44;;;;;;;0.10;0.10;;;;;;;24.90;41.70;99045.84;5018801;24;20121;-84
2021/08/03 13:26:31;;;;;;;0.10;0.10;;;;;;;24.65;42.33;99044.47;5740786;24;20108;-84
2021/08/03 13:38:21;;;;;;;0.10;0.10;;;;;;;25.01;39.11;99039.31;5173103;24;20057;-87
2021/08/03 14:08:12;;;;;;;0.10;0.10;;;;;;;24.08;41.18;99039.25;5690157;24;20057;31
2021/08/03 14:45:30;;;;;;;0.10;0.10;;;;;;;24.21;40.94;99044.41;5614767;24;20037;31
2021/08/03 15:43:43;;;;;;;0.10;0.10;;;;;;;23.44;39.51;99061.69;5351951;24;20045;-84
2021/08/03 17:14:40;;;;;;;0.10;0.10;;;;;;;21.20;48.15;99162.00;4819338;29;20109;-83
2021/08/03 17:17:14;;;;;;;0.10;0.10;;;;;;;21.17;48.26;99162.47;4784831;29;20057;-84
2021/08/03 17:19:48;;;;;;;0.10;0.10;;;;;;;21.11;48.58;99169.75;4883666;24;20042;-84
2021/08/03 17:22:21;;;;;;;0.10;0.10;;;;;;;21.20;48.65;99173.00;4953068;24;20095;-84
2021/08/03 17:24:49;;;;;;;0.10;0.10;;;;;;;21.12;48.58;99167.84;4771241;29;20434;-82
2021/08/03 17:27:19;;;;;;;0.10;0.10;;;;;;;21.10;48.64;99178.25;4801094;29;20089;-82
2021/08/03 17:29:51;;;;;;;0.10;0.10;;;;;;;21.01;49.27;99185.09;4785606;29;20531;-83
2021/08/03 17:32:19;;;;;;;0.10;0.10;;;;;;;20.96;48.98;99177.56;4795918;29;20049;-84
2021/08/03 17:34:46;;;;;;;0.10;0.10;;;;;;;20.93;49.55;99186.25;4790004;29;20034;-82
2021/08/03 17:37:14;;;;;;;0.10;0.10;;;;;;;20.84;49.40;99188.50;4793914;29;20031;-83
2021/08/03 17:39:44;;;;;;;0.10;0.10;;;;;;;20.80;49.31;99190.00;4799936;29;20098;-84
2021/08/03 17:45:27;;;;;;;0.10;0.10;;;;;;;20.63;50.62;99199.94;5689982;24;20097;-84
2021/08/03 17:47:59;;;;;;;0.10;0.10;;;;;;;20.55;50.64;99212.06;4809866;29;20603;-85
2021/08/03 17:50:29;;;;;;;0.10;0.10;;;;;;;20.48;51.30;99216.75;5174828;24;20027;-83
2021/08/03 17:52:56;;;;;;;0.10;0.10;;;;;;;20.44;51.67;99202.63;4814232;29;20023;-84
2021/08/03 17:55:25;;;;;;;0.10;0.10;;;;;;;20.30;51.65;99216.69;4977356;24;20975;-83
2021/08/03 18:00:57;;;;;;;0.10;0.10;;;;;;;20.08;52.90;99221.75;5412312;24;20042;-86
2021/08/03 18:03:26;;;;;;;0.10;0.10;;;;;;;20.01;52.75;99223.69;4848835;24;20050;-84
2021/08/03 18:05:55;;;;;;;0.10;0.10;;;;;;;20.05;52.72;99222.19;4823599;29;20019;-84
2021/08/03 18:08:22;;;;;;;0.10;0.10;;;;;;;19.95;53.18;99229.00;4806349;29;20095;-84
2021/08/03 18:45:29;;;;;;;0.10;0.10;;;;;;;19.38;54.94;99218.97;5079022;24;20063;-83
2021/08/03 18:55:02;;;;;;;0.10;0.10;;;;;;;19.40;55.59;99225.94;5187623;24;20114;-85
2021/08/03 19:00:14;;;;;;;0.10;0.10;;;;;;;19.15;56.25;99225.00;4775638;29;20128;-84
2021/08/03 19:02:44;;;;;;;0.10;0.10;;;;;;;19.12;55.34;99219.97;4792267;29;20051;-83
2021/08/03 19:05:15;;;;;;;0.10;0.10;;;;;;;19.12;55.37;99225.44;4790717;29;20510;-81
2021/08/03 19:07:49;;;;;;;0.10;0.10;;;;;;;19.07;56.13;99220.63;4790694;29;20047;-82
2021/08/03 19:10:17;;;;;;;0.10;0.10;;;;;;;19.07;55.64;99228.00;4772195;29;20059;-81
2021/08/03 19:13:09;;;;;;;0.10;0.10;;;;;;;18.96;56.38;99233.09;4791887;29;20105;-80
2021/08/03 19:15:38;;;;;;;0.10;0.10;;;;;;;18.89;56.93;99225.94;4794619;29;20051;-82
2021/08/03 19:18:06;;;;;;;0.10;0.10;;;;;;;18.89;56.87;99237.75;4797536;29;20047;-81
2021/08/03 19:20:34;;;;;;;0.10;0.10;;;;;;;18.79;57.13;99242.81;4789380;29;20047;-82
2021/08/03 19:23:05;;;;;;;0.10;0.10;;;;;;;18.69;57.77;99237.78;4804150;29;20066;-82
2021/08/03 19:25:31;;;;;;;0.10;0.10;;;;;;;18.63;57.28;99243.25;4783395;30;20047;-81
2021/08/03 19:27:57;;;;;;;0.10;0.10;;;;;;;18.61;57.41;99245.34;4790424;29;20065;-81
2021/08/03 19:30:27;;;;;;;0.10;0.10;;;;;;;18.58;57.46;99249.38;4769236;29;20039;-81
2021/08/03 19:32:59;;;;;;;0.10;0.10;;;;;;;18.47;58.07;99247.28;4778655;29;20161;-81
2021/08/03 19:35:26;;;;;;;0.10;0.10;;;;;;;18.49;57.98;99240.53;4782723;29;20043;-81
2021/08/03 19:37:53;;;;;;;0.10;0.10;;;;;;;18.51;57.23;99245.81;4778574;29;20074;-80
2021/08/03 19:40:20;;;;;;;0.10;0.10;;;;;;;18.42;58.11;99247.91;4796825;29;20156;-80
2021/08/03 19:42:46;;;;;;;0.10;0.10;;;;;;;18.48;57.56;99248.97;4793698;29;20067;-81
2021/08/03 19:45:12;;;;;;;0.10;0.10;;;;;;;18.46;57.72;99257.38;4790448;29;20088;-81
2021/08/03 19:47:49;;;;;;;0.10;0.10;;;;;;;18.44;57.92;99256.75;4761419;29;20051;-83
2021/08/03 19:50:17;;;;;;;0.10;0.10;;;;;;;18.42;57.60;99253.38;4779835;29;20048;-81
2021/08/03 19:52:49;;;;;;;0.10;0.10;;;;;;;18.38;58.03;99265.81;4788344;29;20061;-81
2021/08/03 19:55:17;;;;;;;0.10;0.10;;;;;;;18.36;58.16;99265.19;4753378;29;20046;-81
2021/08/03 19:57:44;;;;;;;0.10;0.10;;;;;;;18.35;58.22;99263.50;4781156;29;20350;-84
2021/08/03 20:00:15;;;;;;;0.10;0.10;;;;;;;18.28;58.70;99265.38;4777385;29;20054;-83
2021/08/03 20:02:44;;;;;;;0.10;0.10;;;;;;;18.24;58.75;99272.34;4752506;29;20137;-82
2021/08/03 20:05:12;;;;;;;0.10;0.10;;;;;;;18.23;58.90;99281.59;4771967;29;20047;-83
2021/08/03 20:07:38;;;;;;;0.10;0.10;;;;;;;18.17;59.00;99276.97;4771850;30;20043;-83
2021/08/03 20:10:06;;;;;;;0.10;0.10;;;;;;;18.13;59.19;99282.00;4790722;29;20051;-82
2021/08/03 20:12:33;;;;;;;0.10;0.10;;;;;;;18.05;59.63;99272.13;4794453;29;20075;-81
2021/08/03 20:15:00;;;;;;;0.10;0.10;;;;;;;18.03;59.67;99274.22;4795649;29;20057;-81
2021/08/03 20:17:27;;;;;;;0.10;0.10;;;;;;;17.99;60.23;99278.44;4775115;30;20045;-82
2021/08/03 20:19:53;;;;;;;0.10;0.10;;;;;;;17.93;61.00;99281.16;4754198;30;20044;-80
2021/08/03 20:22:19;;;;;;;0.10;0.10;;;;;;;17.84;60.71;99277.75;4769320;30;20130;-82
2021/08/03 20:24:47;;;;;;;0.17;0.17;;;;;;;17.76;60.45;99269.75;4780708;30;20450;-82
2021/08/03 20:27:18;;;;;;;0.10;0.10;;;;;;;17.75;61.06;99278.97;4799830;29;20055;-82
2021/08/03 20:29:51;;;;;;;0.10;0.10;;;;;;;17.71;61.29;99272.25;4764648;30;20100;-83
2021/08/03 20:32:20;;;;;;;;;;;;;;;17.71;60.93;99277.72;4753764;29;20058;-84
2021/08/03 20:34:47;;;;;;;0.13;0.13;;;;;;;17.64;61.66;99283.16;4784117;30;19929;-82
2021/08/03 20:37:16;;;;;;;0.10;0.10;;;;;;;17.57;62.28;99277.66;4777475;30;20036;-82
2021/08/03 20:40:08;;;;;;;0.10;0.10;;;;;;;17.48;62.64;99275.34;4764928;30;20069;-85
2021/08/03 20:42:35;;;;;;;0.10;0.10;;;;;;;17.45;63.14;99275.75;4799651;29;20043;-81
2021/08/03 20:45:01;;;;;;;0.10;0.10;;;;;;;17.38;62.93;99281.19;4771125;29;20134;-83
2021/08/03 20:47:27;;;;;;;0.10;0.10;;;;;;;17.30;63.23;99284.09;4801365;29;20056;-84
2021/08/03 20:49:54;;;;;;;0.10;0.10;;;;;;;17.20;63.69;99276.28;4768203;29;20614;-82
2021/08/03 20:52:21;;;;;;;0.10;0.10;;;;;;;17.18;63.38;99288.44;4759388;29;20074;-82
2021/08/03 20:54:47;;;;;;;0.10;0.10;;;;;;;17.17;63.50;99295.78;4791847;29;20340;-81
2021/08/03 20:57:15;;;;;;;0.10;0.10;;;;;;;17.14;63.85;99292.63;4798969;29;20048;-82
2021/08/03 20:59:42;;;;;;;0.10;0.10;;;;;;;17.09;64.24;99296.81;4779765;29;20044;-81
2021/08/03 21:02:14;;;;;;;0.10;0.10;;;;;;;17.07;64.52;99301.63;4811371;29;20054;-82